This is the latest recevied weather packets stored in our database for station/object VK5GR-12. If no packets are shown the sender has not sent any weather packets the latest 10 day(s).
| Time | Temp. | Humidity | Pressure | Rain* | Wind** | Luminosity | Snow |
|---|---|---|---|---|---|---|---|
| 1777773223 | 16.11° C | 69% | 1011.2 hPa | 0 mm | - | 227 W/m² | - |
| 1777767804 | 15.56° C | 73% | 1011.4 hPa | 0 mm | - | 264 W/m² | - |
| 1777766900 | 15° C | 77% | 1011.5 hPa | 0 mm | - | 336 W/m² | - |
| 1777760580 | 12.22° C | 88% | 1011.4 hPa | 0 mm | - | 39 W/m² | - |
| 1777759675 | 12.22° C | 89% | 1011.4 hPa | 0 mm | - | 26 W/m² | - |
| 1777757868 | 11.67° C | 90% | 1011.1 hPa | 0 mm | - | 10 W/m² | - |
| 1777754258 | 11.67° C | 94% | 1010.5 hPa | 0 mm | - | 0 W/m² | - |
| 1777739815 | 12.78° C | 84% | 1010.2 hPa | 0 mm | - | 0 W/m² | - |
| 1777738010 | 12.78° C | 85% | 1010.6 hPa | 0 mm | - | 0 W/m² | - |
| 1777737110 | 12.78° C | 85% | 1010.4 hPa | 0 mm | - | 0 W/m² | - |
| 1777736206 | 12.78° C | 85% | 1010.6 hPa | 0 mm | - | 0 W/m² | - |
| 1777735303 | 12.78° C | 86% | 1010.7 hPa | 0 mm | - | 0 W/m² | - |
| 1777734401 | 12.78° C | 87% | 1010.8 hPa | 0 mm | - | 0 W/m² | - |
| 1777733496 | 12.78° C | 87% | 1010.7 hPa | 0 mm | - | 0 W/m² | - |
| 1777732591 | 13.33° C | 88% | 1010.9 hPa | 0 mm | - | 0 W/m² | - |
| 1777731688 | 13.33° C | 89% | 1010.9 hPa | 0 mm | - | 0 W/m² | - |
| 1777730787 | 13.33° C | 91% | 1011.1 hPa | 0 mm | - | 0 W/m² | - |
| 1777729882 | 13.33° C | 91% | 1011.1 hPa | 0 mm | - | 0 W/m² | - |
| 1777728978 | 13.89° C | 91% | 1011.1 hPa | 1.78 mm | - | 0 W/m² | - |
| 1777728075 | 13.89° C | 91% | 1011 hPa | 0 mm | - | 0 W/m² | - |
| 1777727172 | 13.89° C | 93% | 1011.3 hPa | 0 mm | - | 0 W/m² | - |
| 1777725367 | 14.44° C | 93% | 1011.3 hPa | 0 mm | - | 0 W/m² | - |
| 1777724463 | 14.44° C | 93% | 1011.3 hPa | 0 mm | - | 0 W/m² | - |
| 1777723560 | 14.44° C | 93% | 1011.5 hPa | 0 mm | - | 0 W/m² | - |
| 1777721753 | 14.44° C | 93% | 1011 hPa | 0 mm | - | 0 W/m² | - |
* Rain latest hour (hover to see other rain measurements)
** Current wind speed in m/s (hover to see current wind gust speed)